Hovedside
METAR-TAF:

METAR-TAF

Lufthavner :

Alta, Norge

Alta lufthavn

breddegrad: 69-59N, lengdegrad: 023-22E, høyde over havet: 0 m

Gjeldene værobservasjon

Denne rapporten ble laget for 44 minutter siden, klokken 21:50 UTC
Flau vind
Temperatur 12°C
Luftfuktighet 88%
Trykk 1020 hPa
Sikt 10 km eller mer
ingen skyer under 1500 m og ingen bygeskyer

METAR: ENAT 242150Z 00000KT CAVOK 12/10 Q1020 RMK WIND 700FT VRB01KT

Tid: 00:34 (22:34 UTC)

Varsel

Denne rapporten ble laget for 5 timer og 34 minutter siden, klokken 17:00 UTC
Varsel gyldig fra 24. klokken 18 UTC til 25. klokken 02 UTC
Vind 8 kt fra Vest-nordvest
Sikt 10 km eller mer
ingen skyer under 1500 m og ingen bygeskyer

TAF: ENAT 241700Z 2418/2502 30008KT CAVOK

Værobservasjoner og værvarsel for over 4000 flyplasser (METAR- og TAF-rapporter).

Tilgjengelige stasjoner er representert av de røde og gule prikkene på kartet.

Hold musepekeren over prikken for å se navnet på stasjonen.

Klikk så for å se værobservasjoner og -varsler.

For å forandre kartet kan du klikke på den grønne knappen med svart kryss for å zoome inn, på den grønne knappen med strek for å zoome ut, eller på de grønne pilene for å se tilstøtende kart.


METAR-TAF: